Time;durP1;ratioP1;P1;durP2;ratioP2;P2;SDS_P1;SDS_P2;PMS_P1;PMS_P2;Temp;Humidity;BMP_temperature;BMP_pressure;BME280_temperature;BME280_humidity;BME280_pressure;Samples;Min_cycle;Max_cycle;Signal;HPM_P1;HPM_P2
2023/10/24 00:01:54;;;;;;;26.45;17.17;;;10.70;99.90;;;;;;5086362;28;20068;-84
2023/10/24 00:04:19;;;;;;;26.55;17.83;;;10.80;99.90;;;;;;5051714;28;20089;-84
2023/10/24 00:06:45;;;;;;;26.98;16.90;;;10.80;99.90;;;;;;5053157;28;20079;-84
2023/10/24 00:09:10;;;;;;;25.23;17.20;;;10.80;99.90;;;;;;5069913;28;20110;-85
2023/10/24 00:11:36;;;;;;;26.70;17.17;;;10.80;99.90;;;;;;5068058;28;20091;-85
2023/10/24 00:14:02;;;;;;;23.17;15.45;;;10.70;99.90;;;;;;5052389;28;20028;-85
2023/10/24 00:16:28;;;;;;;25.33;17.30;;;10.80;99.90;;;;;;5052942;28;20410;-85
2023/10/24 00:18:53;;;;;;;23.90;16.45;;;10.70;99.90;;;;;;5069202;28;20044;-85
2023/10/24 00:21:19;;;;;;;22.85;16.33;;;10.80;99.90;;;;;;5068595;28;20396;-84
2023/10/24 00:23:44;;;;;;;25.90;16.92;;;10.80;99.90;;;;;;5067605;28;20086;-84
2023/10/24 00:26:10;;;;;;;24.23;17.05;;;10.80;99.90;;;;;;5069008;28;20028;-84
2023/10/24 00:28:36;;;;;;;25.38;17.45;;;10.80;99.90;;;;;;5063938;28;20033;-85
2023/10/24 00:31:02;;;;;;;23.73;16.85;;;10.80;99.90;;;;;;5068889;28;20040;-85
2023/10/24 00:33:27;;;;;;;24.65;17.33;;;10.80;99.90;;;;;;5051938;28;20072;-84
2023/10/24 00:35:53;;;;;;;25.95;16.23;;;10.70;99.90;;;;;;5051756;28;20103;-85
2023/10/24 00:38:18;;;;;;;23.52;17.73;;;10.70;99.90;;;;;;5070188;28;20043;-84
2023/10/24 00:40:44;;;;;;;26.25;18.00;;;10.80;99.90;;;;;;5067965;28;20041;-85
2023/10/24 00:43:10;;;;;;;27.33;18.08;;;10.80;99.90;;;;;;5051609;28;20032;-85
2023/10/24 00:45:35;;;;;;;23.70;16.75;;;10.80;99.90;;;;;;5046486;28;20437;-84
2023/10/24 00:48:06;;;;;;;26.33;16.20;;;10.80;99.90;;;;;;5052982;28;20032;-85
2023/10/24 00:50:32;;;;;;;26.30;16.52;;;10.80;99.90;;;;;;5051312;28;20097;-85
2023/10/24 00:52:59;;;;;;;26.33;17.42;;;10.80;99.90;;;;;;5051657;28;20495;-85
2023/10/24 00:55:25;;;;;;;21.10;16.13;;;10.80;99.90;;;;;;5068301;28;20037;-85
2023/10/24 00:57:52;;;;;;;25.27;17.27;;;10.80;99.90;;;;;;5051459;28;20123;-84
2023/10/24 01:00:20;;;;;;;26.90;16.90;;;10.80;99.90;;;;;;5051150;28;20041;-85
2023/10/24 01:02:45;;;;;;;21.67;16.95;;;10.80;99.90;;;;;;5069174;28;20107;-84
2023/10/24 01:05:12;;;;;;;21.92;15.65;;;10.80;99.90;;;;;;5068024;28;20115;-84
2023/10/24 01:07:38;;;;;;;23.67;16.48;;;10.80;99.90;;;;;;5052447;28;20074;-84
2023/10/24 01:10:04;;;;;;;23.98;16.65;;;10.80;99.90;;;;;;5050862;28;20489;-85
2023/10/24 01:12:30;;;;;;;25.70;15.82;;;10.80;99.90;;;;;;5072984;28;20166;-86
2023/10/24 01:14:56;;;;;;;22.30;16.10;;;10.80;99.90;;;;;;5072593;28;20115;-85
2023/10/24 01:17:21;;;;;;;21.15;16.25;;;10.90;99.90;;;;;;5071708;28;20047;-85
2023/10/24 01:19:47;;;;;;;25.92;16.90;;;10.90;99.90;;;;;;5072895;28;20449;-86
2023/10/24 01:22:12;;;;;;;28.40;17.58;;;10.90;99.90;;;;;;5056036;28;20513;-86
2023/10/24 01:24:38;;;;;;;22.88;16.70;;;10.90;99.90;;;;;;5072311;28;20032;-86
2023/10/24 01:27:04;;;;;;;23.60;16.60;;;10.90;99.90;;;;;;5055132;28;20047;-86
2023/10/24 01:29:30;;;;;;;23.73;15.85;;;10.90;99.90;;;;;;5072870;28;20041;-86
2023/10/24 01:31:55;;;;;;;27.27;17.08;;;10.90;99.90;;;;;;5071240;28;20037;-86
2023/10/24 01:34:21;;;;;;;25.55;17.40;;;10.90;99.90;;;;;;5066654;28;20032;-86
2023/10/24 01:36:47;;;;;;;22.55;16.42;;;10.90;99.90;;;;;;5054829;28;20082;-85
2023/10/24 01:39:12;;;;;;;22.65;15.90;;;10.90;99.90;;;;;;5072516;28;20450;-86
2023/10/24 01:41:38;;;;;;;22.00;15.68;;;10.90;99.90;;;;;;5072156;28;20044;-86
2023/10/24 01:44:04;;;;;;;20.17;14.85;;;10.90;99.90;;;;;;5071865;28;20032;-86
2023/10/24 01:46:29;;;;;;;22.15;15.35;;;10.90;99.90;;;;;;5071261;28;20043;-86
2023/10/24 01:48:55;;;;;;;21.52;15.57;;;10.90;99.90;;;;;;5055290;28;20039;-86
2023/10/24 01:51:21;;;;;;;22.92;16.27;;;11.00;99.90;;;;;;5072672;28;20079;-86
2023/10/24 01:53:46;;;;;;;19.48;14.82;;;11.00;99.90;;;;;;5055249;28;20047;-86
2023/10/24 01:56:12;;;;;;;20.20;14.02;;;11.00;99.90;;;;;;5068406;28;20406;-86
2023/10/24 01:58:38;;;;;;;25.00;15.00;;;11.00;99.90;;;;;;5072661;28;20503;-87
2023/10/24 02:01:04;;;;;;;22.33;16.08;;;11.00;99.90;;;;;;5070838;28;20041;-86
2023/10/24 02:03:30;;;;;;;21.17;15.77;;;11.00;99.90;;;;;;5055774;28;20091;-86
2023/10/24 02:05:56;;;;;;;20.33;14.48;;;11.00;99.90;;;;;;5072120;28;20060;-86
2023/10/24 02:08:21;;;;;;;24.70;15.73;;;11.00;99.90;;;;;;5053707;28;20038;-86
2023/10/24 02:10:47;;;;;;;23.05;16.90;;;11.00;99.90;;;;;;5071361;28;20118;-86
2023/10/24 02:13:12;;;;;;;22.27;15.77;;;11.00;99.90;;;;;;5071346;28;20037;-86
2023/10/24 02:15:38;;;;;;;19.95;16.35;;;11.00;99.90;;;;;;5072851;28;20047;-86
2023/10/24 02:18:03;;;;;;;27.00;16.60;;;11.00;99.90;;;;;;5055935;28;20055;-86
2023/10/24 02:20:29;;;;;;;23.80;16.27;;;11.00;99.90;;;;;;5072210;28;20067;-86
2023/10/24 02:22:55;;;;;;;25.65;17.10;;;11.00;99.90;;;;;;5053537;28;20033;-86
2023/10/24 02:25:20;;;;;;;24.98;17.23;;;11.00;99.90;;;;;;5070669;28;20033;-86
2023/10/24 02:27:46;;;;;;;27.05;17.80;;;11.00;99.90;;;;;;5072191;28;20036;-85
2023/10/24 02:30:11;;;;;;;23.30;17.02;;;11.00;99.90;;;;;;5071228;28;20036;-86
2023/10/24 02:32:37;;;;;;;24.30;16.58;;;11.00;99.90;;;;;;5070263;28;20044;-86
2023/10/24 02:35:03;;;;;;;23.58;16.38;;;11.10;99.90;;;;;;5071589;28;20029;-86
2023/10/24 02:37:29;;;;;;;26.45;17.65;;;11.10;99.90;;;;;;5054808;28;20494;-86
2023/10/24 02:39:55;;;;;;;23.58;17.17;;;11.10;99.90;;;;;;5088834;28;20509;-86
2023/10/24 02:42:20;;;;;;;24.73;16.58;;;11.10;99.90;;;;;;5070283;28;20033;-86
2023/10/24 02:44:49;;;;;;;25.88;17.42;;;11.10;99.90;;;;;;5070979;28;20041;-86
2023/10/24 02:47:15;;;;;;;23.85;17.02;;;11.10;99.90;;;;;;5070823;28;20510;-86
2023/10/24 02:49:41;;;;;;;24.90;16.60;;;11.10;99.90;;;;;;5083435;23;20044;-29
2023/10/24 02:52:06;;;;;;;25.15;16.83;;;11.10;99.90;;;;;;5076085;28;20471;-29
2023/10/24 02:54:32;;;;;;;25.38;17.40;;;11.10;99.90;;;;;;5074510;28;20040;-28
2023/10/24 02:56:58;;;;;;;24.73;17.48;;;11.10;99.90;;;;;;5076855;28;20630;-28
2023/10/24 02:59:23;;;;;;;24.67;17.15;;;11.10;99.90;;;;;;5060678;28;20120;-28
2023/10/24 03:01:49;;;;;;;29.77;20.08;;;11.10;99.90;;;;;;5048137;28;20398;-28
2023/10/24 03:04:15;;;;;;;22.98;16.52;;;11.10;99.90;;;;;;5051316;28;20171;-28
2023/10/24 03:06:41;;;;;;;29.30;18.05;;;11.10;99.90;;;;;;5054789;28;20032;-27
2023/10/24 03:09:06;;;;;;;25.60;16.85;;;11.10;99.90;;;;;;5060265;28;20451;-27
2023/10/24 03:11:32;;;;;;;21.42;16.40;;;11.10;99.90;;;;;;5059105;28;20410;-27
2023/10/24 03:13:58;;;;;;;24.90;16.95;;;11.10;99.90;;;;;;5062007;28;20103;-26
2023/10/24 03:16:23;;;;;;;31.23;19.00;;;11.10;99.90;;;;;;5073107;28;20033;-26
2023/10/24 03:18:49;;;;;;;23.90;16.42;;;11.10;99.90;;;;;;5047479;28;20033;-27
2023/10/24 03:21:15;;;;;;;25.15;15.82;;;11.20;99.90;;;;;;5053220;28;20034;-26
2023/10/24 03:23:40;;;;;;;26.73;17.55;;;11.20;99.90;;;;;;5053134;28;20045;-27
2023/10/24 03:26:06;;;;;;;26.83;18.02;;;11.20;99.90;;;;;;5058770;28;20040;-26
2023/10/24 03:28:33;;;;;;;25.05;18.27;;;11.20;99.90;;;;;;5051921;28;20394;-26
2023/10/24 03:31:03;;;;;;;22.02;18.02;;;11.20;99.90;;;;;;5048978;28;20396;-26
2023/10/24 03:33:33;;;;;;;26.95;18.58;;;11.30;99.90;;;;;;5055754;28;20036;-27
2023/10/24 03:35:59;;;;;;;25.50;17.35;;;11.30;99.90;;;;;;5067259;28;20044;-27
2023/10/24 03:38:26;;;;;;;24.25;18.15;;;11.30;99.90;;;;;;5050701;28;20037;-26
2023/10/24 03:40:53;;;;;;;22.23;17.60;;;11.30;99.90;;;;;;5044983;28;20541;-27
2023/10/24 03:43:19;;;;;;;29.35;19.85;;;11.30;99.90;;;;;;5052584;28;20041;-26
2023/10/24 03:45:45;;;;;;;25.75;19.20;;;11.30;99.90;;;;;;5049422;28;20033;-26
2023/10/24 03:48:12;;;;;;;25.77;19.25;;;11.40;99.90;;;;;;5046995;28;20033;-27
2023/10/24 03:50:39;;;;;;;25.80;18.48;;;11.40;99.90;;;;;;5057469;28;20055;-27
2023/10/24 03:53:06;;;;;;;23.80;19.35;;;11.40;99.90;;;;;;5064221;28;20043;-26
2023/10/24 03:55:32;;;;;;;28.77;20.90;;;11.40;99.90;;;;;;5053029;28;20441;-26
2023/10/24 03:57:58;;;;;;;26.25;19.60;;;11.40;99.90;;;;;;5046518;28;20066;-26
2023/10/24 04:00:24;;;;;;;23.27;18.17;;;11.40;99.90;;;;;;5072717;28;20483;-26
2023/10/24 04:02:56;;;;;;;21.60;18.60;;;11.50;99.90;;;;;;5053807;28;20048;-27
2023/10/24 04:05:22;;;;;;;20.92;17.77;;;11.50;99.90;;;;;;5063755;28;20048;-26
2023/10/24 04:07:48;;;;;;;24.25;17.98;;;11.50;99.90;;;;;;5053901;28;20040;-27
2023/10/24 04:10:15;;;;;;;23.08;17.85;;;11.60;99.90;;;;;;5062976;28;20029;-26
2023/10/24 04:12:41;;;;;;;22.48;16.83;;;11.60;99.90;;;;;;5053984;28;20033;-26
2023/10/24 04:15:08;;;;;;;21.17;16.77;;;11.60;99.90;;;;;;5058496;28;20502;-26
2023/10/24 04:17:34;;;;;;;24.35;17.60;;;11.60;99.90;;;;;;5055474;28;20040;-26
2023/10/24 04:20:00;;;;;;;18.15;14.98;;;11.60;99.90;;;;;;5050735;28;20038;-27
2023/10/24 04:22:26;;;;;;;16.23;14.57;;;11.60;99.90;;;;;;5052123;28;20510;-26
2023/10/24 04:24:51;;;;;;;19.25;15.10;;;11.60;99.90;;;;;;5050867;28;20107;-26
2023/10/24 04:27:17;;;;;;;17.17;14.68;;;11.70;99.90;;;;;;5060023;28;20040;-26
2023/10/24 04:29:44;;;;;;;17.05;14.32;;;11.70;99.90;;;;;;5050423;28;20051;-26
2023/10/24 04:32:10;;;;;;;15.93;14.27;;;11.70;99.90;;;;;;5058031;28;20464;-27
2023/10/24 04:34:35;;;;;;;14.60;12.85;;;11.70;99.90;;;;;;5053013;28;20076;-26
2023/10/24 04:37:01;;;;;;;15.90;13.68;;;11.70;99.90;;;;;;5047611;28;20052;-26
2023/10/24 04:39:29;;;;;;;16.80;13.10;;;11.70;99.90;;;;;;5055205;28;20071;-26
2023/10/24 04:41:54;;;;;;;15.55;11.75;;;11.70;99.90;;;;;;5057164;28;20116;-26
2023/10/24 04:44:20;;;;;;;14.65;11.95;;;11.70;99.90;;;;;;5059224;28;20072;-27
2023/10/24 04:46:46;;;;;;;12.35;11.15;;;11.70;99.90;;;;;;5053169;28;20037;-27
2023/10/24 04:49:12;;;;;;;13.07;11.43;;;11.70;99.90;;;;;;5053338;28;20115;-27
2023/10/24 04:51:38;;;;;;;12.93;11.63;;;11.70;99.90;;;;;;5051144;28;20037;-26
2023/10/24 04:54:04;;;;;;;16.30;11.43;;;11.70;99.90;;;;;;5055159;28;20044;-27
2023/10/24 04:56:29;;;;;;;11.35;10.15;;;11.70;99.90;;;;;;5066898;28;20542;-27
2023/10/24 04:58:56;;;;;;;11.85;10.60;;;11.70;99.90;;;;;;5051835;28;20065;-27
2023/10/24 05:01:22;;;;;;;11.75;10.60;;;11.70;99.90;;;;;;5060300;28;20044;-27
2023/10/24 05:03:47;;;;;;;13.02;11.27;;;11.70;99.90;;;;;;5054783;28;20048;-27
2023/10/24 05:06:13;;;;;;;13.52;10.73;;;11.60;99.90;;;;;;5058898;28;20029;-27
2023/10/24 05:08:39;;;;;;;11.80;10.45;;;11.70;99.90;;;;;;5037523;28;20059;-27
2023/10/24 05:11:05;;;;;;;11.60;10.40;;;11.70;99.90;;;;;;5056524;28;20036;-27
2023/10/24 05:13:31;;;;;;;11.27;10.02;;;11.70;99.90;;;;;;5054042;28;20037;-27
2023/10/24 05:15:57;;;;;;;10.93;9.93;;;11.70;99.90;;;;;;5055351;28;20181;-27
2023/10/24 05:18:22;;;;;;;11.50;10.30;;;11.70;99.90;;;;;;5063938;28;20118;-27
2023/10/24 05:20:48;;;;;;;11.18;10.07;;;11.70;99.90;;;;;;5051586;28;20071;-27
2023/10/24 05:23:14;;;;;;;12.27;9.80;;;11.60;99.90;;;;;;5055131;28;20399;-27
2023/10/24 05:25:42;;;;;;;12.13;10.18;;;11.60;99.90;;;;;;5063235;28;20033;-27
2023/10/24 05:28:08;;;;;;;11.82;9.88;;;11.50;99.90;;;;;;5059503;28;20033;-27
2023/10/24 05:30:36;;;;;;;11.43;9.68;;;11.50;99.90;;;;;;5045646;28;20041;-27
2023/10/24 05:33:03;;;;;;;12.77;10.13;;;11.50;99.90;;;;;;5057410;28;20040;-27
2023/10/24 05:35:29;;;;;;;11.32;10.20;;;11.50;99.90;;;;;;5036580;28;20160;-27
2023/10/24 05:37:55;;;;;;;10.18;9.05;;;11.50;99.90;;;;;;5058754;28;20041;-27
2023/10/24 05:40:21;;;;;;;12.45;10.50;;;11.50;99.90;;;;;;5050856;28;20443;-27
2023/10/24 05:42:47;;;;;;;12.38;9.90;;;11.50;99.90;;;;;;5061014;28;20124;-27
2023/10/24 05:45:13;;;;;;;10.52;9.00;;;11.50;99.90;;;;;;5051362;28;20076;-27
2023/10/24 05:47:38;;;;;;;11.73;9.75;;;11.50;99.90;;;;;;5047101;28;20451;-27
2023/10/24 05:50:04;;;;;;;11.05;9.90;;;11.50;99.90;;;;;;5061068;28;20400;-27
2023/10/24 05:52:31;;;;;;;11.38;9.25;;;11.50;99.90;;;;;;5058570;28;20041;-27
2023/10/24 05:54:57;;;;;;;13.80;10.15;;;11.50;99.90;;;;;;5065486;28;20047;-27
2023/10/24 05:57:23;;;;;;;11.88;9.98;;;11.50;99.90;;;;;;5058043;28;20029;-27
2023/10/24 05:59:50;;;;;;;12.18;9.75;;;11.50;99.90;;;;;;5059547;28;20451;-27
2023/10/24 06:02:16;;;;;;;12.60;9.13;;;11.50;99.90;;;;;;5060348;28;20041;-27
2023/10/24 06:04:42;;;;;;;10.63;9.05;;;11.50;99.90;;;;;;5062000;28;20506;-27
2023/10/24 06:07:08;;;;;;;9.90;8.90;;;11.50;99.90;;;;;;5063087;28;20037;-27
2023/10/24 06:09:33;;;;;;;10.20;9.10;;;11.40;99.90;;;;;;5056474;28;20065;-27
2023/10/24 06:11:59;;;;;;;11.75;9.32;;;11.50;99.90;;;;;;5058253;28;20037;-27
2023/10/24 06:14:25;;;;;;;10.60;9.10;;;11.40;99.90;;;;;;5065108;28;20042;-27
2023/10/24 06:16:51;;;;;;;11.32;9.23;;;11.50;99.90;;;;;;5053670;28;20102;-27
2023/10/24 06:19:16;;;;;;;9.75;8.75;;;11.50;99.90;;;;;;5051419;28;20439;-27
2023/10/24 06:21:42;;;;;;;10.73;8.60;;;11.50;99.90;;;;;;5059927;28;20091;-27
2023/10/24 06:24:08;;;;;;;10.25;8.73;;;11.50;99.90;;;;;;5040062;28;20491;-27
2023/10/24 06:26:33;;;;;;;10.18;8.25;;;11.50;99.90;;;;;;5059190;28;20123;-27
2023/10/24 06:28:59;;;;;;;9.93;8.80;;;11.50;99.90;;;;;;5067921;28;20033;-27
2023/10/24 06:31:26;;;;;;;9.85;8.15;;;11.50;99.90;;;;;;5064472;28;20051;-27
2023/10/24 06:33:52;;;;;;;8.60;7.78;;;11.50;99.90;;;;;;5046538;28;20564;-27
2023/10/24 06:36:17;;;;;;;9.25;8.35;;;11.50;99.90;;;;;;5056877;28;20064;-27
2023/10/24 06:38:43;;;;;;;9.82;8.43;;;11.50;99.90;;;;;;5054379;28;20577;-27
2023/10/24 06:41:09;;;;;;;9.65;7.75;;;11.50;99.90;;;;;;5056054;28;20033;-27
2023/10/24 06:43:35;;;;;;;9.18;8.20;;;11.50;99.90;;;;;;5040267;28;20045;-27
2023/10/24 06:46:04;;;;;;;11.88;8.27;;;11.50;99.90;;;;;;5065933;28;20120;-27
2023/10/24 06:48:31;;;;;;;10.98;8.70;;;11.50;99.90;;;;;;5051899;28;20041;-27
2023/10/24 06:50:57;;;;;;;10.40;8.48;;;11.50;99.90;;;;;;5050240;28;20415;-27
2023/10/24 06:53:23;;;;;;;9.93;8.63;;;11.50;99.90;;;;;;5050773;28;20040;-27
2023/10/24 06:55:48;;;;;;;10.88;8.90;;;11.50;99.90;;;;;;5047039;28;20451;-27
2023/10/24 06:58:14;;;;;;;9.07;8.00;;;11.50;99.90;;;;;;5051384;28;20112;-27
2023/10/24 07:00:40;;;;;;;10.02;8.98;;;11.50;99.90;;;;;;5048943;28;20317;-27
2023/10/24 07:03:05;;;;;;;9.48;8.43;;;11.50;99.90;;;;;;5051610;28;20045;-27
2023/10/24 07:05:32;;;;;;;9.02;7.95;;;11.50;99.90;;;;;;5047600;28;20028;-27
2023/10/24 07:07:58;;;;;;;10.18;8.05;;;11.50;99.90;;;;;;5043753;28;20454;-27
2023/10/24 07:10:24;;;;;;;9.68;8.50;;;11.50;99.90;;;;;;5061074;28;20041;-27
2023/10/24 07:12:50;;;;;;;9.73;8.50;;;11.50;99.90;;;;;;5055846;28;20036;-27
2023/10/24 07:15:15;;;;;;;9.93;8.35;;;11.50;99.90;;;;;;5053855;28;20037;-27
2023/10/24 07:17:41;;;;;;;10.45;8.75;;;11.50;99.90;;;;;;5039104;28;20103;-26
2023/10/24 07:20:07;;;;;;;13.40;8.93;;;11.50;99.90;;;;;;5049746;28;20037;-26
2023/10/24 07:22:33;;;;;;;10.52;8.77;;;11.50;99.90;;;;;;5045431;28;20416;-27
2023/10/24 07:24:59;;;;;;;9.73;8.48;;;11.50;99.90;;;;;;5047872;28;20049;-27
2023/10/24 07:27:25;;;;;;;10.70;8.80;;;11.50;99.90;;;;;;5040656;28;20037;-27
2023/10/24 07:29:50;;;;;;;11.52;9.32;;;11.50;99.90;;;;;;5045018;28;20522;-27
2023/10/24 07:32:16;;;;;;;11.38;8.70;;;11.50;99.90;;;;;;5054607;28;20079;-27
2023/10/24 07:34:41;;;;;;;12.52;9.00;;;11.50;99.90;;;;;;5054689;28;20052;-27
2023/10/24 07:37:10;;;;;;;10.93;8.57;;;11.50;99.90;;;;;;5054421;28;20040;-27
2023/10/24 07:39:36;;;;;;;11.90;8.57;;;11.50;99.90;;;;;;5066677;28;20040;-27
2023/10/24 07:42:03;;;;;;;15.40;10.00;;;11.50;99.90;;;;;;5055213;28;20044;-27
2023/10/24 07:44:29;;;;;;;10.73;8.57;;;11.50;99.90;;;;;;5045934;28;20399;-27
2023/10/24 07:46:54;;;;;;;11.30;9.23;;;11.50;99.90;;;;;;5041730;28;20052;-27
2023/10/24 07:49:20;;;;;;;9.55;8.25;;;11.50;99.90;;;;;;5054730;28;20039;-27
2023/10/24 07:51:46;;;;;;;11.60;9.05;;;11.50;99.90;;;;;;5065143;28;20048;-26
2023/10/24 07:54:12;;;;;;;11.50;9.02;;;11.50;99.90;;;;;;5054580;28;20041;-27
2023/10/24 07:56:41;;;;;;;11.60;9.18;;;11.60;99.90;;;;;;5060565;28;20074;-27
2023/10/24 07:59:07;;;;;;;9.98;8.98;;;11.60;99.90;;;;;;5055284;28;20070;-27
2023/10/24 08:01:36;;;;;;;13.60;9.65;;;11.60;99.90;;;;;;5056770;28;20123;-26
2023/10/24 08:04:02;;;;;;;13.35;9.63;;;11.60;99.90;;;;;;5051860;28;20041;-27
2023/10/24 08:06:28;;;;;;;13.90;10.15;;;11.50;99.90;;;;;;5061146;28;20475;-27
2023/10/24 08:08:53;;;;;;;10.35;8.15;;;11.60;99.90;;;;;;5046336;28;20037;-27
2023/10/24 08:11:19;;;;;;;13.15;9.73;;;11.60;99.90;;;;;;5058385;28;20098;-27
2023/10/24 08:13:45;;;;;;;10.93;9.52;;;11.50;99.90;;;;;;5052068;28;20033;-27
2023/10/24 08:16:10;;;;;;;12.25;9.93;;;11.60;99.90;;;;;;5057256;28;20037;-27
2023/10/24 08:18:37;;;;;;;12.70;9.70;;;11.60;99.90;;;;;;5055983;28;20463;-27
2023/10/24 08:21:03;;;;;;;11.73;9.48;;;11.60;99.90;;;;;;5062592;28;20075;-27
2023/10/24 08:23:29;;;;;;;12.48;10.70;;;11.60;99.90;;;;;;5052342;28;20072;-27
2023/10/24 08:25:56;;;;;;;15.20;10.80;;;11.60;99.90;;;;;;5051941;28;20044;-27
2023/10/24 08:28:22;;;;;;;11.60;10.25;;;11.60;99.90;;;;;;5050702;28;20376;-27
2023/10/24 08:30:48;;;;;;;13.57;10.82;;;11.60;99.90;;;;;;5067937;28;20041;-27
2023/10/24 08:33:15;;;;;;;11.93;10.43;;;11.60;99.90;;;;;;5061392;28;20059;-27
2023/10/24 08:35:41;;;;;;;14.00;10.85;;;11.60;99.90;;;;;;5054830;28;20196;-27
2023/10/24 08:38:06;;;;;;;10.93;9.73;;;11.60;99.90;;;;;;5055746;28;20041;-27
2023/10/24 08:40:32;;;;;;;12.27;10.20;;;11.70;99.90;;;;;;5057365;28;20037;-26
2023/10/24 08:42:58;;;;;;;14.43;9.98;;;11.70;99.90;;;;;;5058905;28;20151;-27
2023/10/24 08:45:25;;;;;;;12.57;11.15;;;11.70;99.90;;;;;;5059630;28;20126;-27
2023/10/24 08:50:27;;;;;;;12.07;10.57;;;11.70;99.90;;;;;;5084026;22;20088;-87
2023/10/24 08:52:53;;;;;;;12.95;9.50;;;11.80;99.90;;;;;;5017484;28;20080;-87
2023/10/24 08:55:19;;;;;;;10.48;9.48;;;11.80;99.90;;;;;;5037316;28;20045;-90
2023/10/24 08:57:46;;;;;;;11.52;9.70;;;11.80;99.90;;;;;;5011585;28;20128;-89
2023/10/24 09:00:14;;;;;;;10.75;9.30;;;11.80;99.90;;;;;;5008767;28;20155;-89
2023/10/24 09:02:44;;;;;;;10.80;9.48;;;11.80;99.90;;;;;;5034264;28;20052;-89
2023/10/24 09:05:11;;;;;;;11.05;9.35;;;11.90;99.90;;;;;;5035362;28;20044;-90
2023/10/24 09:07:37;;;;;;;11.77;8.80;;;11.90;99.90;;;;;;5033186;28;20047;-87
2023/10/24 09:10:03;;;;;;;10.02;8.30;;;11.90;99.90;;;;;;5035735;28;20145;-88
2023/10/24 09:12:33;;;;;;;8.10;7.30;;;11.90;99.90;;;;;;5030169;28;20044;-85
2023/10/24 09:15:00;;;;;;;8.95;7.85;;;11.90;99.90;;;;;;5021143;28;20037;-87
2023/10/24 09:17:26;;;;;;;9.88;7.90;;;11.90;99.90;;;;;;5038552;28;20048;-88
2023/10/24 09:19:55;;;;;;;8.13;7.32;;;11.90;99.90;;;;;;5037660;28;20040;-87
2023/10/24 09:22:21;;;;;;;8.35;7.35;;;11.90;99.90;;;;;;5034789;28;20044;-87
2023/10/24 09:24:49;;;;;;;8.82;7.90;;;11.90;99.90;;;;;;5037160;28;20041;-86
2023/10/24 09:27:21;;;;;;;7.82;6.68;;;12.00;99.90;;;;;;5034567;28;20108;-87
2023/10/24 09:29:49;;;;;;;7.70;6.82;;;12.00;99.90;;;;;;5016637;28;20044;-85
2023/10/24 09:32:16;;;;;;;7.80;7.05;;;12.00;99.90;;;;;;5020016;28;20348;-86
2023/10/24 09:34:42;;;;;;;8.65;6.97;;;12.10;99.90;;;;;;5020522;28;20052;-87
2023/10/24 09:37:10;;;;;;;8.48;6.93;;;12.10;99.90;;;;;;5035009;28;20087;-87
2023/10/24 09:39:52;;;;;;;7.97;6.53;;;12.20;99.90;;;;;;5023816;28;20045;-87
2023/10/24 09:42:24;;;;;;;7.47;6.72;;;12.10;99.90;;;;;;5017460;28;20037;-87
2023/10/24 09:45:00;;;;;;;7.22;6.53;;;12.10;99.90;;;;;;5020782;28;20063;-86
2023/10/24 09:47:27;;;;;;;8.23;7.28;;;12.10;99.90;;;;;;5034221;28;20120;-87
2023/10/24 09:49:54;;;;;;;7.45;6.75;;;12.00;99.90;;;;;;5036435;28;20068;-88
2023/10/24 09:52:21;;;;;;;7.57;6.43;;;12.00;99.90;;;;;;5015901;28;20487;-86
2023/10/24 09:54:48;;;;;;;7.32;6.55;;;12.10;99.90;;;;;;5022945;28;20414;-77
2023/10/24 09:57:21;;;;;;;8.18;7.38;;;12.00;99.90;;;;;;5036526;28;20568;-87
2023/10/24 09:59:54;;;;;;;8.43;7.50;;;12.10;99.90;;;;;;5025328;28;20045;-87
2023/10/24 10:02:23;;;;;;;8.48;7.50;;;12.00;99.90;;;;;;5018078;28;20033;-87
2023/10/24 10:04:49;;;;;;;8.23;7.35;;;12.10;99.90;;;;;;5029069;28;20040;-87
2023/10/24 10:07:16;;;;;;;7.45;6.63;;;12.00;99.90;;;;;;5020244;28;20056;-88
2023/10/24 10:09:46;;;;;;;7.57;6.78;;;12.00;99.90;;;;;;5021915;28;20068;-87
2023/10/24 10:12:13;;;;;;;7.43;6.55;;;12.10;99.90;;;;;;5021451;28;20111;-87
2023/10/24 10:15:04;;;;;;;7.20;6.50;;;12.10;99.90;;;;;;5027091;28;20040;-88
2023/10/24 10:17:45;;;;;;;7.10;6.45;;;12.10;99.90;;;;;;5000421;28;20071;-88
2023/10/24 10:20:23;;;;;;;7.65;6.82;;;12.10;99.90;;;;;;5038060;28;20043;-88
2023/10/24 10:22:59;;;;;;;7.95;7.13;;;12.10;99.90;;;;;;5022391;28;20041;-88
2023/10/24 10:25:39;;;;;;;7.72;6.90;;;12.10;99.90;;;;;;5028047;28;20029;-88
2023/10/24 10:28:29;;;;;;;7.85;6.57;;;12.10;99.90;;;;;;5020324;28;20037;-88
2023/10/24 10:31:17;;;;;;;7.43;6.72;;;12.20;99.90;;;;;;5024900;28;20072;-88
2023/10/24 10:33:43;;;;;;;8.20;7.18;;;12.30;99.90;;;;;;5036226;28;20403;-88
2023/10/24 10:36:11;;;;;;;8.13;7.30;;;12.40;99.90;;;;;;5024400;28;20037;-88
2023/10/24 10:38:47;;;;;;;8.05;7.22;;;12.50;99.90;;;;;;5019888;28;20489;-88
2023/10/24 10:41:22;;;;;;;9.63;8.35;;;12.60;99.90;;;;;;5022341;28;20068;-87
2023/10/24 10:43:49;;;;;;;9.05;7.93;;;12.70;99.90;;;;;;5035364;28;20041;-87
2023/10/24 10:46:16;;;;;;;9.52;7.53;;;12.70;99.90;;;;;;5022195;28;20044;-88
2023/10/24 10:48:42;;;;;;;9.13;8.20;;;12.80;99.90;;;;;;5020571;28;20044;-87
2023/10/24 10:51:13;;;;;;;11.68;9.88;;;12.90;99.90;;;;;;5036938;28;20545;-88
2023/10/24 10:53:50;;;;;;;10.95;9.20;;;12.90;99.90;;;;;;5035772;28;20049;-88
2023/10/24 10:56:25;;;;;;;9.75;8.75;;;12.90;99.90;;;;;;5022125;28;20045;-87
2023/10/24 10:59:28;;;;;;;11.45;9.75;;;12.90;99.90;;;;;;5018877;28;20506;-88
2023/10/24 11:02:32;;;;;;;10.18;9.10;;;12.90;99.90;;;;;;5029918;28;20125;-88
2023/10/24 11:04:57;;;;;;;9.65;8.65;;;12.80;99.90;;;;;;5034881;28;20048;-88
2023/10/24 11:07:57;;;;;;;12.00;9.98;;;12.90;99.90;;;;;;5020904;28;20033;-87
2023/10/24 11:10:22;;;;;;;10.88;9.63;;;12.80;99.90;;;;;;5035299;28;20033;-88
2023/10/24 11:12:48;;;;;;;13.43;11.05;;;12.80;99.90;;;;;;5018969;28;20043;-88
2023/10/24 11:15:14;;;;;;;12.63;10.50;;;12.80;99.90;;;;;;5017933;28;20037;-89
2023/10/24 11:17:40;;;;;;;10.57;9.50;;;12.90;99.90;;;;;;5029933;28;20102;-88
2023/10/24 11:20:10;;;;;;;10.48;9.43;;;13.00;99.90;;;;;;5020657;28;20143;-88
2023/10/24 11:22:42;;;;;;;11.00;9.57;;;13.10;99.90;;;;;;5034245;28;20090;-88
2023/10/24 11:25:11;;;;;;;11.02;9.93;;;13.20;99.90;;;;;;5020139;28;20443;-88
2023/10/24 11:27:43;;;;;;;10.63;8.90;;;13.30;99.90;;;;;;5018224;28;20380;-89
2023/10/24 11:30:09;;;;;;;11.63;10.18;;;13.40;99.90;;;;;;5014810;28;20064;-88
2023/10/24 11:32:41;;;;;;;11.25;9.65;;;13.40;99.90;;;;;;5019085;28;20048;-91
2023/10/24 11:35:09;;;;;;;12.23;10.80;;;13.50;99.90;;;;;;5020887;28;20043;-87
2023/10/24 11:37:34;;;;;;;10.35;9.35;;;13.40;99.90;;;;;;5018616;28;20537;-87
2023/10/24 11:40:00;;;;;;;11.60;10.40;;;13.30;99.90;;;;;;5019858;28;20068;-86
2023/10/24 11:42:26;;;;;;;10.70;9.52;;;13.30;99.90;;;;;;5055891;28;20052;-88
2023/10/24 11:44:54;;;;;;;10.35;9.05;;;13.30;99.90;;;;;;5036589;28;20367;-86
2023/10/24 11:47:20;;;;;;;10.32;9.32;;;13.30;99.90;;;;;;5035604;28;20036;-86
2023/10/24 11:49:46;;;;;;;9.82;8.82;;;13.20;99.90;;;;;;5033469;28;20040;-88
2023/10/24 11:52:12;;;;;;;10.45;9.40;;;13.20;99.90;;;;;;5033989;28;20086;-87
2023/10/24 11:54:39;;;;;;;10.27;9.15;;;13.30;99.90;;;;;;5018350;28;20044;-88
2023/10/24 11:57:09;;;;;;;13.25;11.30;;;13.40;99.90;;;;;;5017842;28;20519;-87
2023/10/24 11:59:35;;;;;;;9.45;8.52;;;13.70;99.90;;;;;;5032691;28;20049;-87
2023/10/24 12:02:03;;;;;;;10.02;9.00;;;13.90;99.90;;;;;;5016758;28;20032;-86
2023/10/24 12:04:30;;;;;;;10.05;9.00;;;14.10;99.90;;;;;;5032291;28;20052;-87
2023/10/24 12:07:08;;;;;;;12.20;9.18;;;14.20;99.90;;;;;;5032210;28;20041;-87
2023/10/24 12:09:36;;;;;;;9.65;8.75;;;14.30;99.90;;;;;;5044548;28;20108;-88
2023/10/24 12:12:05;;;;;;;9.52;8.63;;;14.30;99.90;;;;;;5015791;28;20561;-87
2023/10/24 12:14:32;;;;;;;10.10;8.90;;;14.20;99.90;;;;;;5029482;28;20403;-86
2023/10/24 12:16:58;;;;;;;9.27;8.48;;;14.10;99.90;;;;;;5029715;28;20041;-87
2023/10/24 12:19:24;;;;;;;10.00;9.02;;;13.90;99.90;;;;;;5033424;28;20041;-87
2023/10/24 12:21:55;;;;;;;9.88;8.90;;;13.80;99.90;;;;;;5012518;28;20066;-88
2023/10/24 12:24:21;;;;;;;9.55;8.65;;;13.60;99.90;;;;;;5032027;28;20041;-87
2023/10/24 12:26:48;;;;;;;9.65;8.65;;;13.60;99.90;;;;;;5029236;28;20044;-90
2023/10/24 12:29:13;;;;;;;10.52;9.52;;;13.50;99.90;;;;;;5010724;28;20039;-88
2023/10/24 12:31:39;;;;;;;10.00;9.00;;;13.40;99.90;;;;;;5019564;28;20044;-87
2023/10/24 12:34:05;;;;;;;10.13;9.23;;;13.40;99.90;;;;;;5015397;28;20047;-88
2023/10/24 12:36:31;;;;;;;11.05;9.73;;;13.40;99.90;;;;;;5038034;28;20040;-87